Time;durP1;ratioP1;P1;durP2;ratioP2;P2;SDS_P1;SDS_P2;PMS_P1;PMS_P2;Temp;Humidity;BMP_temperature;BMP_pressure;BME280_temperature;BME280_humidity;BME280_pressure;Samples;Min_cycle;Max_cycle;Signal;HPM_P1;HPM_P2
2021/10/21 00:00:27;;;;;;;0.57;0.43;;;15.40;99.90;;;;;;5034474;28;20470;-77
2021/10/21 00:02:56;;;;;;;0.50;0.30;;;15.50;99.90;;;;;;5034607;28;20452;-76
2021/10/21 00:05:22;;;;;;;0.50;0.30;;;15.50;99.90;;;;;;5034536;28;20434;-77
2021/10/21 00:07:49;;;;;;;0.50;0.40;;;15.50;99.90;;;;;;5034627;28;20443;-77
2021/10/21 00:10:17;;;;;;;0.50;0.30;;;15.50;99.90;;;;;;5034266;28;20482;-77
2021/10/21 00:12:44;;;;;;;1.73;1.53;;;15.60;99.90;;;;;;5034340;28;20476;-77
2021/10/21 00:15:11;;;;;;;1.13;1.00;;;15.60;99.90;;;;;;5034120;28;20438;-77
2021/10/21 00:17:38;;;;;;;0.60;0.40;;;15.60;99.90;;;;;;5034576;28;20439;-76
2021/10/21 00:20:10;;;;;;;1.20;0.77;;;15.60;99.90;;;;;;5034028;28;20512;-73
2021/10/21 00:22:36;;;;;;;0.50;0.30;;;15.60;99.90;;;;;;5034353;28;20476;-76
2021/10/21 00:25:04;;;;;;;0.60;0.50;;;15.40;99.90;;;;;;5034350;28;20967;-78
2021/10/21 00:27:31;;;;;;;8.43;1.50;;;15.30;99.90;;;;;;5034068;28;20438;-77
2021/10/21 00:29:58;;;;;;;1.57;1.13;;;15.10;99.90;;;;;;5033427;28;20497;-77
2021/10/21 00:32:24;;;;;;;0.50;0.37;;;14.90;99.90;;;;;;5033461;28;20446;-77
2021/10/21 00:34:51;;;;;;;1.83;0.50;;;14.80;99.90;;;;;;5034343;28;20443;-77
2021/10/21 00:37:19;;;;;;;1.17;0.60;;;14.70;99.90;;;;;;5034265;28;20445;-76
2021/10/21 00:39:46;;;;;;;0.50;0.40;;;14.60;99.90;;;;;;5033904;28;20458;-77
2021/10/21 00:42:13;;;;;;;18.73;1.23;;;14.50;99.90;;;;;;5033427;28;20447;-77
2021/10/21 00:44:39;;;;;;;0.50;0.33;;;14.50;99.90;;;;;;5034092;28;20809;-77
2021/10/21 00:47:07;;;;;;;0.50;0.30;;;14.50;99.90;;;;;;5034050;28;20423;-78
2021/10/21 00:49:34;;;;;;;0.70;0.67;;;14.40;99.90;;;;;;5033671;28;20475;-78
2021/10/21 00:52:01;;;;;;;1.40;1.30;;;14.40;99.90;;;;;;5033696;28;20835;-77
2021/10/21 00:54:29;;;;;;;1.47;1.37;;;14.40;99.90;;;;;;5033518;28;20438;-78
2021/10/21 00:56:58;;;;;;;0.50;0.30;;;14.30;99.90;;;;;;5033737;28;20449;-78
2021/10/21 00:59:25;;;;;;;5.70;1.23;;;14.30;99.90;;;;;;5033966;28;20459;-75
2021/10/21 01:01:51;;;;;;;0.50;0.50;;;14.30;99.90;;;;;;5033520;28;20452;-78
2021/10/21 01:04:18;;;;;;;0.77;0.67;;;14.30;99.90;;;;;;5033691;28;20443;-77
2021/10/21 01:06:45;;;;;;;0.50;0.40;;;14.20;99.90;;;;;;5033058;28;20506;-78
2021/10/21 01:09:12;;;;;;;7.33;2.30;;;14.20;99.90;;;;;;5033427;28;20462;-78
2021/10/21 01:11:42;;;;;;;0.77;0.77;;;14.20;99.90;;;;;;5033178;28;20447;-78
2021/10/21 01:14:09;;;;;;;0.60;0.60;;;14.20;99.90;;;;;;5033328;28;20830;-77
2021/10/21 01:16:39;;;;;;;1.03;1.03;;;14.20;99.90;;;;;;5033384;28;20449;-77
2021/10/21 01:19:14;;;;;;;0.60;0.43;;;14.20;99.90;;;;;;5033347;28;20506;-79
2021/10/21 01:21:43;;;;;;;2.00;1.50;;;14.10;99.90;;;;;;5033557;28;20421;-77
2021/10/21 01:24:10;;;;;;;1.37;0.80;;;14.00;99.90;;;;;;5033738;28;20434;-79
2021/10/21 01:26:37;;;;;;;0.80;0.80;;;14.00;99.90;;;;;;5033280;28;20441;-77
2021/10/21 01:29:04;;;;;;;2.73;1.40;;;14.00;99.90;;;;;;5033223;28;20466;-77
2021/10/21 01:31:30;;;;;;;0.50;0.40;;;14.00;99.90;;;;;;5032451;28;20466;-77
2021/10/21 01:33:57;;;;;;;0.80;0.50;;;14.00;99.90;;;;;;5033032;28;20456;-78
2021/10/21 01:36:24;;;;;;;0.80;0.70;;;14.00;99.90;;;;;;5033391;28;20442;-78
2021/10/21 01:38:52;;;;;;;0.60;0.40;;;13.90;99.90;;;;;;5032994;28;20820;-79
2021/10/21 01:41:19;;;;;;;0.70;0.70;;;13.90;99.90;;;;;;5031666;28;20480;-79
2021/10/21 01:43:46;;;;;;;5.10;0.70;;;13.80;99.90;;;;;;5032643;28;20823;-78
2021/10/21 01:46:13;;;;;;;0.60;0.40;;;13.90;99.90;;;;;;5033000;28;20442;-78
2021/10/21 01:48:40;;;;;;;0.50;0.40;;;13.90;99.90;;;;;;5032872;28;20544;-78
2021/10/21 01:51:07;;;;;;;0.50;0.40;;;13.80;99.90;;;;;;5031706;28;21006;-77
2021/10/21 01:53:34;;;;;;;0.50;0.40;;;13.80;99.90;;;;;;5032565;28;20445;-77
2021/10/21 01:56:02;;;;;;;0.77;0.73;;;13.70;99.90;;;;;;5032925;28;20488;-78
2021/10/21 01:58:29;;;;;;;3.33;0.70;;;13.70;99.90;;;;;;5032614;28;20442;-77
2021/10/21 02:00:56;;;;;;;0.50;0.40;;;13.70;99.90;;;;;;5031977;28;20442;-78
2021/10/21 02:03:22;;;;;;;0.50;0.40;;;13.70;99.90;;;;;;5032467;28;20518;-78
2021/10/21 02:05:49;;;;;;;2.70;0.70;;;13.70;99.90;;;;;;5032449;28;20434;-78
2021/10/21 02:08:16;;;;;;;0.60;0.50;;;13.70;99.90;;;;;;5032433;28;20465;-78
2021/10/21 02:10:42;;;;;;;1.97;1.03;;;13.70;99.90;;;;;;5031866;28;20479;-77
2021/10/21 02:13:11;;;;;;;0.50;0.40;;;13.50;99.90;;;;;;5032492;28;20450;-78
2021/10/21 02:15:37;;;;;;;0.50;0.40;;;13.20;99.90;;;;;;5031804;28;20457;-79
2021/10/21 02:18:04;;;;;;;0.50;0.40;;;12.90;99.90;;;;;;5032435;28;20849;-77
2021/10/21 02:20:31;;;;;;;0.50;0.40;;;12.60;99.90;;;;;;5031612;28;20823;-76
2021/10/21 02:22:58;;;;;;;1.70;0.50;;;12.40;99.90;;;;;;5037437;28;20441;-77
2021/10/21 02:25:26;;;;;;;0.50;0.30;;;12.30;99.90;;;;;;5031743;28;20453;-77
2021/10/21 02:27:53;;;;;;;1.07;0.97;;;12.30;99.90;;;;;;5032251;28;20452;-77
2021/10/21 02:30:22;;;;;;;0.60;0.45;;;12.30;99.90;;;;;;5032190;28;20544;-77
2021/10/21 02:32:49;;;;;;;0.63;0.60;;;12.30;99.90;;;;;;5031989;28;20200;-76
2021/10/21 02:35:16;;;;;;;0.50;0.40;;;12.30;99.90;;;;;;5031818;28;20907;-78
2021/10/21 02:37:43;;;;;;;1.47;0.50;;;12.20;99.90;;;;;;5031835;28;20442;-78
2021/10/21 02:40:12;;;;;;;1.77;0.70;;;12.30;99.90;;;;;;5031412;28;20461;-77
2021/10/21 02:42:39;;;;;;;3.00;1.00;;;12.30;99.90;;;;;;5031821;28;20456;-79
2021/10/21 02:45:07;;;;;;;0.70;0.50;;;12.30;99.90;;;;;;5031683;28;20196;-77
2021/10/21 02:47:35;;;;;;;0.80;0.40;;;12.40;99.90;;;;;;5031737;28;20195;-79
2021/10/21 02:50:02;;;;;;;0.60;0.40;;;12.40;99.90;;;;;;5031731;28;20211;-78
2021/10/21 02:52:29;;;;;;;0.60;0.50;;;12.50;99.90;;;;;;5030906;28;20222;-76
2021/10/21 02:54:55;;;;;;;1.67;0.60;;;12.60;99.90;;;;;;5031738;28;20213;-78
2021/10/21 02:57:22;;;;;;;1.25;1.15;;;12.60;99.90;;;;;;5031493;28;20919;-77
2021/10/21 02:59:49;;;;;;;1.33;0.40;;;12.60;99.90;;;;;;5031352;28;20229;-78
2021/10/21 03:02:15;;;;;;;0.50;0.50;;;12.60;99.90;;;;;;5031551;28;20446;-78
2021/10/21 03:04:43;;;;;;;0.65;0.60;;;12.60;99.90;;;;;;5031382;28;20803;-79
2021/10/21 03:07:10;;;;;;;0.73;0.50;;;12.60;99.90;;;;;;5031505;28;20198;-75
2021/10/21 03:09:37;;;;;;;3.60;0.50;;;12.60;99.90;;;;;;5031196;28;20458;-78
2021/10/21 03:12:04;;;;;;;0.50;0.40;;;12.60;99.90;;;;;;5031245;28;20928;-78
2021/10/21 03:14:31;;;;;;;0.50;0.45;;;12.60;99.90;;;;;;5031016;28;20206;-79
2021/10/21 03:16:58;;;;;;;8.20;1.85;;;12.60;99.90;;;;;;5031453;28;20219;-78
2021/10/21 03:19:24;;;;;;;1.23;0.40;;;12.60;99.90;;;;;;5031406;28;20216;-75
2021/10/21 03:21:52;;;;;;;0.50;0.30;;;12.60;99.90;;;;;;5030568;28;20441;-77
2021/10/21 03:24:19;;;;;;;0.50;0.30;;;12.60;99.90;;;;;;5031195;28;20206;-78
2021/10/21 03:26:47;;;;;;;0.70;0.60;;;12.60;99.90;;;;;;5031316;28;20947;-78
2021/10/21 03:29:14;;;;;;;0.50;0.30;;;12.60;99.90;;;;;;5031088;28;20812;-77
2021/10/21 03:31:40;;;;;;;0.60;0.40;;;12.60;99.90;;;;;;5031015;28;20215;-78
2021/10/21 03:34:07;;;;;;;0.50;0.30;;;12.60;99.90;;;;;;5031793;28;20448;-77
2021/10/21 03:36:34;;;;;;;0.80;0.50;;;12.60;99.90;;;;;;5030795;28;20192;-77
2021/10/21 03:39:02;;;;;;;0.50;0.40;;;12.60;99.90;;;;;;5031240;28;20458;-78
2021/10/21 03:41:29;;;;;;;0.50;0.43;;;12.60;99.90;;;;;;5030749;28;20204;-74
2021/10/21 03:43:56;;;;;;;0.90;0.70;;;12.70;99.90;;;;;;5031220;28;20210;-77
2021/10/21 03:46:23;;;;;;;0.70;0.40;;;12.70;99.90;;;;;;5031159;28;20191;-77
2021/10/21 03:48:50;;;;;;;0.50;0.37;;;12.70;99.90;;;;;;5031266;28;20499;-78
2021/10/21 03:51:16;;;;;;;0.60;0.40;;;12.70;99.90;;;;;;5030302;28;20470;-77
2021/10/21 03:53:43;;;;;;;0.50;0.40;;;12.70;99.90;;;;;;5030686;28;20442;-78
2021/10/21 03:56:11;;;;;;;0.70;0.60;;;12.70;99.90;;;;;;5031077;28;20434;-78
2021/10/21 03:58:38;;;;;;;0.60;0.53;;;12.70;99.90;;;;;;5030643;28;20445;-76
2021/10/21 04:01:05;;;;;;;0.50;0.40;;;12.80;99.90;;;;;;5030844;28;20434;-77
2021/10/21 04:03:32;;;;;;;0.60;0.40;;;12.80;99.90;;;;;;5031382;28;20740;-73
2021/10/21 04:05:59;;;;;;;0.50;0.37;;;12.90;99.90;;;;;;5032947;28;20669;-77
2021/10/21 04:08:26;;;;;;;0.50;0.30;;;12.80;99.90;;;;;;5034331;28;21099;-77
2021/10/21 04:10:52;;;;;;;0.50;0.40;;;12.90;99.90;;;;;;5033735;28;20505;-75
2021/10/21 04:13:21;;;;;;;1.90;1.13;;;12.90;99.90;;;;;;5034622;28;20245;-77
2021/10/21 04:15:48;;;;;;;0.87;0.60;;;12.90;99.90;;;;;;5034475;28;20855;-77
2021/10/21 04:18:15;;;;;;;0.50;0.40;;;12.90;99.90;;;;;;5034314;28;20441;-77
2021/10/21 04:20:42;;;;;;;9.33;1.07;;;12.90;99.90;;;;;;5033870;28;20454;-76
2021/10/21 04:23:09;;;;;;;2.13;0.90;;;13.00;99.90;;;;;;5034345;28;20472;-77
2021/10/21 04:25:36;;;;;;;0.60;0.50;;;13.00;99.90;;;;;;5034248;28;20448;-77
2021/10/21 04:28:02;;;;;;;2.33;0.67;;;13.00;99.90;;;;;;5034516;28;20221;-77
2021/10/21 04:30:30;;;;;;;0.60;0.37;;;13.00;99.90;;;;;;5033576;28;21006;-75
2021/10/21 04:32:57;;;;;;;0.57;0.52;;;13.00;99.90;;;;;;5034139;28;20438;-76
2021/10/21 04:35:24;;;;;;;0.50;0.40;;;13.00;99.90;;;;;;5034077;28;20223;-75
2021/10/21 04:37:51;;;;;;;0.50;0.40;;;12.90;99.90;;;;;;5033576;28;20205;-76
2021/10/21 04:40:17;;;;;;;0.60;0.53;;;12.80;99.90;;;;;;5033534;28;20227;-76
2021/10/21 04:42:44;;;;;;;1.03;0.90;;;12.70;99.90;;;;;;5034169;28;20441;-77
2021/10/21 04:45:11;;;;;;;0.90;0.50;;;12.50;99.90;;;;;;5034001;28;20445;-77
2021/10/21 04:47:39;;;;;;;0.50;0.40;;;12.40;99.90;;;;;;5033826;28;20199;-73
2021/10/21 04:50:07;;;;;;;0.50;0.30;;;12.30;99.90;;;;;;5032782;28;20230;-74
2021/10/21 04:52:35;;;;;;;0.50;0.40;;;12.20;99.90;;;;;;5032980;28;20214;-76
2021/10/21 04:55:01;;;;;;;0.50;0.40;;;12.10;99.90;;;;;;5034125;28;20227;-78
2021/10/21 04:57:28;;;;;;;0.50;0.40;;;12.10;99.90;;;;;;5033742;28;20596;-77
2021/10/21 04:59:55;;;;;;;0.70;0.60;;;11.90;99.90;;;;;;5033127;28;20226;-77
2021/10/21 05:02:21;;;;;;;0.50;0.30;;;11.80;99.90;;;;;;5033293;28;20221;-76
2021/10/21 05:04:49;;;;;;;0.50;0.40;;;11.70;99.90;;;;;;5033365;28;20214;-76
2021/10/21 05:07:16;;;;;;;0.50;0.40;;;11.50;99.90;;;;;;5033416;28;20211;-79
2021/10/21 05:09:43;;;;;;;0.60;0.40;;;11.40;99.90;;;;;;5033500;28;20224;-77
2021/10/21 05:12:10;;;;;;;0.50;0.40;;;11.30;99.90;;;;;;5032487;28;20232;-77
2021/10/21 05:14:36;;;;;;;1.77;1.05;;;11.30;99.90;;;;;;5033743;28;20569;-76
2021/10/21 05:17:03;;;;;;;0.50;0.40;;;11.30;99.90;;;;;;5033039;28;20290;-77
2021/10/21 05:19:30;;;;;;;0.60;0.40;;;11.30;99.90;;;;;;5033332;28;20240;-77
2021/10/21 05:21:58;;;;;;;5.28;0.55;;;11.40;99.90;;;;;;5032658;28;20289;-77
2021/10/21 05:24:25;;;;;;;2.25;0.50;;;11.40;99.90;;;;;;5032657;28;20209;-77
2021/10/21 05:26:52;;;;;;;1.52;0.60;;;11.50;99.90;;;;;;5033227;28;20221;-77
2021/10/21 05:29:19;;;;;;;1.23;0.80;;;11.50;99.90;;;;;;5032684;28;20222;-76
2021/10/21 05:31:45;;;;;;;0.50;0.40;;;11.60;99.90;;;;;;5032389;28;20278;-75
2021/10/21 05:34:12;;;;;;;2.25;0.73;;;11.60;99.90;;;;;;5032884;28;20224;-77
2021/10/21 05:36:39;;;;;;;0.75;0.40;;;11.60;99.90;;;;;;5032812;28;20205;-77
2021/10/21 05:39:07;;;;;;;0.50;0.32;;;11.60;99.90;;;;;;5033185;28;20228;-76
2021/10/21 05:41:34;;;;;;;0.60;0.40;;;11.60;99.90;;;;;;5032505;28;20195;-77
2021/10/21 05:44:01;;;;;;;1.33;0.50;;;11.50;99.90;;;;;;5031551;28;20251;-78
2021/10/21 05:46:27;;;;;;;0.50;0.35;;;11.50;99.90;;;;;;5032787;28;20203;-77
2021/10/21 05:48:54;;;;;;;0.50;0.40;;;11.50;99.90;;;;;;5032695;28;20747;-76
2021/10/21 05:51:21;;;;;;;0.50;0.30;;;11.50;99.90;;;;;;5031797;28;20638;-78
2021/10/21 05:53:49;;;;;;;1.13;0.60;;;11.50;99.90;;;;;;5032033;28;20198;-74
2021/10/21 05:56:17;;;;;;;0.50;0.35;;;11.50;99.90;;;;;;5032052;28;20252;-78
2021/10/21 05:58:44;;;;;;;0.50;0.40;;;11.50;99.90;;;;;;5032836;28;20194;-79
2021/10/21 06:01:11;;;;;;;0.60;0.60;;;11.40;99.90;;;;;;5031708;28;20195;-77
2021/10/21 06:03:38;;;;;;;0.60;0.50;;;11.30;99.90;;;;;;5032412;28;20206;-77
2021/10/21 06:06:05;;;;;;;0.50;0.40;;;11.20;99.90;;;;;;5032429;28;20199;-77
2021/10/21 06:08:32;;;;;;;0.50;0.50;;;11.10;99.90;;;;;;5032086;28;20503;-77
2021/10/21 06:11:02;;;;;;;0.60;0.60;;;11.00;99.90;;;;;;5031204;28;20218;-77
2021/10/21 06:13:30;;;;;;;0.70;0.60;;;11.00;99.90;;;;;;5032166;28;20202;-78
2021/10/21 06:15:58;;;;;;;1.25;0.57;;;10.90;99.90;;;;;;5031876;28;20202;-76
2021/10/21 06:18:25;;;;;;;0.60;0.60;;;10.90;99.90;;;;;;5031781;28;20676;-74
2021/10/21 06:20:52;;;;;;;0.90;0.70;;;10.90;99.90;;;;;;5031692;28;20292;-77
2021/10/21 06:23:19;;;;;;;0.85;0.65;;;10.90;99.90;;;;;;5031591;28;20254;-78
2021/10/21 06:25:46;;;;;;;0.60;0.60;;;10.90;99.90;;;;;;5031936;28;20201;-77
2021/10/21 06:28:13;;;;;;;0.50;0.40;;;10.90;99.90;;;;;;5031463;28;20198;-76
2021/10/21 06:30:41;;;;;;;0.50;0.40;;;10.90;99.90;;;;;;5031563;28;20231;-77
2021/10/21 06:33:09;;;;;;;0.50;0.50;;;10.90;99.90;;;;;;5031475;28;20202;-76
2021/10/21 06:35:36;;;;;;;2.15;1.10;;;10.90;99.90;;;;;;5031841;28;20373;-73
2021/10/21 06:38:03;;;;;;;0.80;0.70;;;11.00;99.90;;;;;;5032091;28;20301;-77
2021/10/21 06:40:30;;;;;;;0.60;0.50;;;11.00;99.90;;;;;;5030944;28;20218;-75
2021/10/21 06:42:56;;;;;;;1.38;0.98;;;11.00;99.90;;;;;;5032043;28;20564;-80
2021/10/21 06:45:24;;;;;;;0.50;0.40;;;11.00;99.90;;;;;;5032099;28;20198;-77
2021/10/21 06:47:52;;;;;;;0.77;0.68;;;11.00;99.90;;;;;;5031754;28;20194;-76
2021/10/21 06:50:19;;;;;;;0.73;0.60;;;11.00;99.90;;;;;;5030936;28;20393;-77
2021/10/21 06:52:47;;;;;;;0.50;0.40;;;10.90;99.90;;;;;;5030764;28;20227;-77
2021/10/21 06:55:15;;;;;;;2.75;0.70;;;10.80;99.90;;;;;;5031708;28;20205;-77
2021/10/21 06:57:48;;;;;;;1.60;0.90;;;10.70;99.90;;;;;;5031104;28;20203;-76
2021/10/21 07:00:16;;;;;;;1.42;1.33;;;10.50;99.90;;;;;;5030910;28;20227;-76
2021/10/21 07:02:43;;;;;;;0.50;0.40;;;10.40;99.90;;;;;;5030819;28;20205;-77
2021/10/21 07:05:12;;;;;;;0.50;0.40;;;10.30;99.90;;;;;;5031595;28;20202;-76
2021/10/21 07:07:39;;;;;;;0.50;0.35;;;10.20;99.90;;;;;;5031224;28;20504;-75
2021/10/21 07:10:08;;;;;;;0.50;0.30;;;10.20;99.90;;;;;;5031112;28;20216;-74
2021/10/21 07:12:35;;;;;;;0.50;0.40;;;10.10;99.90;;;;;;5031162;28;20225;-78
2021/10/21 07:15:02;;;;;;;0.60;0.40;;;10.10;99.90;;;;;;5030938;28;20567;-77
2021/10/21 07:17:28;;;;;;;0.50;0.38;;;10.00;99.90;;;;;;5031086;28;20200;-76
2021/10/21 07:19:55;;;;;;;0.50;0.40;;;10.00;99.90;;;;;;5031111;28;20710;-75
2021/10/21 07:22:23;;;;;;;0.50;0.40;;;10.00;99.90;;;;;;5030999;28;20196;-77
2021/10/21 07:24:50;;;;;;;0.50;0.40;;;10.00;99.90;;;;;;5031060;28;20201;-77
2021/10/21 07:27:17;;;;;;;0.60;0.50;;;10.00;99.90;;;;;;5031118;28;20200;-76
2021/10/21 07:29:44;;;;;;;0.50;0.40;;;10.00;99.90;;;;;;5030325;28;20241;-78
2021/10/21 07:32:11;;;;;;;0.50;0.32;;;10.00;99.90;;;;;;5030954;28;20218;-74
2021/10/21 07:34:40;;;;;;;0.73;0.73;;;10.00;99.90;;;;;;5031161;28;20207;-79
2021/10/21 07:37:07;;;;;;;0.57;0.57;;;10.00;99.90;;;;;;5030838;28;20225;-79
2021/10/21 07:39:35;;;;;;;9.20;1.48;;;10.00;99.90;;;;;;5031486;28;20218;-79
2021/10/21 07:42:02;;;;;;;0.50;0.30;;;10.00;99.90;;;;;;5034836;28;20285;-77
2021/10/21 07:44:31;;;;;;;0.50;0.40;;;10.00;99.90;;;;;;5034760;28;20204;-77
2021/10/21 07:46:58;;;;;;;0.60;0.40;;;10.00;99.90;;;;;;5034854;28;20254;-77
2021/10/21 07:49:26;;;;;;;0.50;0.50;;;10.10;99.90;;;;;;5034455;28;20346;-77
2021/10/21 07:51:53;;;;;;;0.50;0.40;;;10.10;99.90;;;;;;5034396;28;20213;-76
2021/10/21 07:54:21;;;;;;;0.50;0.40;;;10.10;99.90;;;;;;5034044;28;20571;-77
2021/10/21 07:56:49;;;;;;;0.50;0.40;;;10.10;99.90;;;;;;5035269;28;20196;-77
2021/10/21 07:59:16;;;;;;;0.50;0.40;;;10.10;99.90;;;;;;5034107;28;20707;-78
2021/10/21 08:01:43;;;;;;;0.60;0.60;;;10.20;99.90;;;;;;5034181;28;20729;-78
2021/10/21 08:04:14;;;;;;;0.60;0.60;;;10.20;99.90;;;;;;5034671;28;20698;-79
2021/10/21 08:06:41;;;;;;;0.90;0.65;;;10.30;99.90;;;;;;5034487;28;20204;-78
2021/10/21 08:09:08;;;;;;;3.53;0.68;;;10.30;99.90;;;;;;5034350;28;20217;-77
2021/10/21 08:11:34;;;;;;;0.50;0.30;;;10.30;99.90;;;;;;5034095;28;20208;-77
2021/10/21 08:14:02;;;;;;;0.70;0.68;;;10.30;99.90;;;;;;5034155;28;20193;-78
2021/10/21 08:16:29;;;;;;;0.80;0.80;;;10.30;99.90;;;;;;5034667;28;20201;-78
2021/10/21 08:18:56;;;;;;;0.60;0.60;;;10.20;99.90;;;;;;5034288;28;20217;-77
2021/10/21 08:21:23;;;;;;;0.90;0.50;;;10.20;99.90;;;;;;5033568;28;20206;-78
2021/10/21 08:23:54;;;;;;;0.50;0.35;;;10.20;99.90;;;;;;5034216;28;20198;-78
2021/10/21 08:26:21;;;;;;;1.42;0.73;;;10.20;99.90;;;;;;5034196;28;20202;-77
2021/10/21 08:28:48;;;;;;;1.13;0.60;;;10.30;99.90;;;;;;5033348;28;20233;-78
2021/10/21 08:31:16;;;;;;;0.70;0.70;;;10.30;99.90;;;;;;5025314;23;20324;-78
2021/10/21 08:33:44;;;;;;;0.50;0.30;;;10.40;99.90;;;;;;5000380;28;20230;-78
2021/10/21 08:36:14;;;;;;;6.82;1.38;;;10.40;99.90;;;;;;4998751;28;20195;-78
2021/10/21 08:38:41;;;;;;;0.50;0.40;;;10.50;99.90;;;;;;4998758;28;20209;-78
2021/10/21 08:41:08;;;;;;;0.70;0.60;;;10.50;99.90;;;;;;4998503;28;20232;-78
2021/10/21 08:43:35;;;;;;;0.50;0.40;;;10.60;99.90;;;;;;4998479;28;20209;-78
2021/10/21 08:46:04;;;;;;;1.77;1.00;;;11.10;99.90;;;;;;4997822;28;20286;-79
2021/10/21 08:48:32;;;;;;;0.50;0.40;;;11.70;99.90;;;;;;4996954;28;20203;-79
2021/10/21 08:51:01;;;;;;;1.55;0.50;;;11.80;99.90;;;;;;4996469;28;20243;-78
2021/10/21 08:53:28;;;;;;;0.60;0.60;;;11.40;99.90;;;;;;4995614;28;20226;-78
2021/10/21 08:55:55;;;;;;;0.50;0.50;;;11.20;99.90;;;;;;4996126;28;20199;-78
2021/10/21 08:58:25;;;;;;;0.60;0.50;;;11.70;99.90;;;;;;4995807;28;20201;-78
2021/10/21 09:00:57;;;;;;;1.20;1.10;;;13.00;99.90;;;;;;4996951;28;20236;-78
2021/10/21 09:03:57;;;;;;;0.93;0.63;;;14.40;99.90;;;;;;4997596;28;20487;-78
2021/10/21 09:06:34;;;;;;;0.57;0.47;;;14.30;99.90;;;;;;4997242;28;20429;-78
2021/10/21 09:09:01;;;;;;;1.33;0.70;;;14.60;99.90;;;;;;4995604;28;20433;-78
2021/10/21 09:11:28;;;;;;;1.23;1.13;;;15.00;99.90;;;;;;4995370;28;20966;-78
2021/10/21 09:14:08;;;;;;;5.40;0.43;;;15.20;99.90;;;;;;4996497;28;20475;-78
2021/10/21 09:16:36;;;;;;;0.70;0.40;;;15.10;99.90;;;;;;4996443;28;20451;-77
2021/10/21 09:19:08;;;;;;;6.00;0.90;;;14.50;99.90;;;;;;4996006;28;20446;-78
2021/10/21 09:21:37;;;;;;;6.90;0.60;;;14.10;99.90;;;;;;4995166;28;20461;-77
2021/10/21 09:24:27;;;;;;;0.73;0.50;;;13.60;99.90;;;;;;4995125;28;21062;-78
2021/10/21 09:27:03;;;;;;;4.40;1.50;;;13.40;99.90;;;;;;4995613;28;20472;-78
2021/10/21 09:29:31;;;;;;;0.60;0.60;;;13.10;99.90;;;;;;4995799;28;20431;-78
2021/10/21 09:32:06;;;;;;;0.50;0.40;;;13.00;99.90;;;;;;4993760;28;20487;-78
2021/10/21 09:34:43;;;;;;;0.50;0.40;;;12.70;99.90;;;;;;4994639;28;20471;-78
2021/10/21 09:37:13;;;;;;;0.50;0.40;;;12.40;99.90;;;;;;4994791;28;20199;-78
2021/10/21 09:39:46;;;;;;;0.50;0.40;;;12.30;99.90;;;;;;4994856;28;20207;-78
2021/10/21 09:42:12;;;;;;;0.50;0.40;;;12.40;99.90;;;;;;4994423;28;20204;-78
2021/10/21 09:44:39;;;;;;;3.90;0.60;;;12.50;99.90;;;;;;4994489;28;20826;-78
2021/10/21 09:47:20;;;;;;;0.77;0.50;;;12.60;99.90;;;;;;4994018;28;20443;-77
2021/10/21 09:49:54;;;;;;;6.87;1.10;;;12.40;99.90;;;;;;4994129;28;20188;-78
2021/10/21 09:52:24;;;;;;;2.93;0.60;;;12.20;99.90;;;;;;4993773;28;20479;-77
2021/10/21 09:54:52;;;;;;;0.50;0.40;;;12.30;99.90;;;;;;4994311;28;20445;-78
2021/10/21 09:57:19;;;;;;;3.90;1.30;;;12.50;99.90;;;;;;4994907;28;20951;-76
2021/10/21 10:00:00;;;;;;;0.50;0.40;;;12.40;99.90;;;;;;4994063;28;20234;-77
2021/10/21 10:02:31;;;;;;;1.03;0.80;;;12.70;99.90;;;;;;4993244;28;20198;-77
2021/10/21 10:05:03;;;;;;;2.03;0.90;;;12.90;99.90;;;;;;4994639;28;20425;-78
2021/10/21 10:07:31;;;;;;;0.60;0.50;;;12.90;99.90;;;;;;4994678;28;20482;-78
2021/10/21 10:10:00;;;;;;;0.50;0.40;;;12.60;99.90;;;;;;4994613;28;20463;-77
2021/10/21 10:12:29;;;;;;;0.50;0.50;;;12.40;99.90;;;;;;4994201;28;20562;-77
2021/10/21 10:14:57;;;;;;;0.80;0.65;;;12.00;99.90;;;;;;4993753;28;20466;-77
2021/10/21 10:17:27;;;;;;;0.60;0.50;;;11.80;99.90;;;;;;4994529;28;20556;-77
2021/10/21 10:19:54;;;;;;;0.50;0.30;;;11.70;99.90;;;;;;4994522;28;20314;-78
2021/10/21 10:22:26;;;;;;;0.60;0.57;;;11.60;99.90;;;;;;4996685;28;20202;-77
2021/10/21 10:24:54;;;;;;;1.00;0.70;;;11.60;99.90;;;;;;4994033;28;20211;-79
2021/10/21 10:27:24;;;;;;;1.00;0.73;;;11.40;99.90;;;;;;4993742;28;20206;-78
2021/10/21 10:29:51;;;;;;;1.10;1.02;;;11.20;99.90;;;;;;4993913;28;20208;-78
2021/10/21 10:32:40;;;;;;;1.27;0.70;;;11.10;99.90;;;;;;4993348;28;20211;-77
2021/10/21 10:35:08;;;;;;;1.13;0.55;;;11.10;99.90;;;;;;4993117;28;20201;-77
2021/10/21 10:37:44;;;;;;;1.35;0.50;;;11.00;99.90;;;;;;4993333;28;20677;-78
2021/10/21 10:40:13;;;;;;;0.90;0.70;;;11.00;99.90;;;;;;4994043;28;20214;-78
2021/10/21 10:42:59;;;;;;;0.68;0.52;;;11.00;99.90;;;;;;4993490;28;20617;-77
2021/10/21 10:45:48;;;;;;;0.60;0.60;;;10.90;99.90;;;;;;4993628;28;20284;-77
2021/10/21 10:48:17;;;;;;;0.50;0.40;;;10.90;99.90;;;;;;4993171;28;20667;-77
2021/10/21 10:50:55;;;;;;;1.77;1.25;;;11.00;99.90;;;;;;4992386;28;20245;-77
2021/10/21 10:53:48;;;;;;;9.20;0.88;;;11.10;99.90;;;;;;4992996;28;20204;-77
2021/10/21 10:56:54;;;;;;;0.80;0.50;;;11.20;99.90;;;;;;4992847;28;20436;-77
2021/10/21 10:59:31;;;;;;;0.50;0.35;;;11.30;99.90;;;;;;4993197;28;20384;-76
2021/10/21 11:02:00;;;;;;;0.50;0.40;;;11.30;99.90;;;;;;4992361;28;20219;-77
2021/10/21 11:05:04;;;;;;;3.38;1.20;;;11.40;99.90;;;;;;4993343;28;20207;-77
2021/10/21 11:07:48;;;;;;;0.60;0.60;;;11.50;99.90;;;;;;4992968;28;20264;-78
2021/10/21 11:10:40;;;;;;;0.90;0.60;;;11.50;99.90;;;;;;4992649;28;20222;-77
2021/10/21 11:13:40;;;;;;;0.50;0.40;;;11.60;99.90;;;;;;4992249;28;20230;-77
2021/10/21 11:16:43;;;;;;;3.53;0.73;;;11.60;99.90;;;;;;4998951;28;20259;-77
2021/10/21 11:19:11;;;;;;;0.60;0.40;;;11.60;99.90;;;;;;4999294;28;20213;-77
2021/10/21 11:21:53;;;;;;;2.35;0.80;;;11.60;99.90;;;;;;4999076;28;20224;-77
2021/10/21 11:25:00;;;;;;;0.50;0.40;;;11.60;99.90;;;;;;4998629;28;20234;-77
2021/10/21 11:27:30;;;;;;;0.50;0.30;;;11.70;99.90;;;;;;4999079;28;20234;-78
2021/10/21 11:30:03;;;;;;;0.57;0.47;;;12.00;99.90;;;;;;4998466;28;20247;-77
2021/10/21 11:32:33;;;;;;;0.60;0.40;;;12.30;99.90;;;;;;4998608;28;20442;-77
2021/10/21 11:35:00;;;;;;;3.23;0.60;;;12.40;99.90;;;;;;4999724;28;20204;-77
2021/10/21 11:37:34;;;;;;;0.60;0.50;;;12.50;99.90;;;;;;4999410;28;20449;-77
2021/10/21 11:40:03;;;;;;;0.60;0.57;;;12.50;99.90;;;;;;4998968;28;20513;-77
2021/10/21 11:42:31;;;;;;;0.60;0.40;;;12.30;99.90;;;;;;4998079;28;20451;-76
2021/10/21 11:45:04;;;;;;;0.70;0.70;;;12.20;99.90;;;;;;4998581;28;20204;-78
2021/10/21 11:47:31;;;;;;;0.50;0.40;;;12.10;99.90;;;;;;4999324;28;20424;-77
2021/10/21 11:49:58;;;;;;;0.60;0.60;;;11.90;99.90;;;;;;4999232;28;20471;-77
2021/10/21 11:52:36;;;;;;;0.50;0.40;;;11.60;99.90;;;;;;4996992;28;20197;-77
2021/10/21 11:55:04;;;;;;;1.92;0.70;;;11.50;99.90;;;;;;4998944;28;20323;-77
2021/10/21 11:57:33;;;;;;;0.63;0.63;;;11.50;99.90;;;;;;4999196;28;20199;-77
2021/10/21 12:00:00;;;;;;;0.50;0.40;;;11.40;99.90;;;;;;4998912;28;20282;-77
2021/10/21 12:02:31;;;;;;;0.50;0.40;;;11.40;99.90;;;;;;4998239;28;20202;-77
2021/10/21 12:04:58;;;;;;;0.50;0.50;;;11.30;99.90;;;;;;4998902;28;20200;-78
2021/10/21 12:07:25;;;;;;;0.50;0.50;;;11.20;99.90;;;;;;4998951;28;20449;-78
2021/10/21 12:09:53;;;;;;;0.60;0.50;;;11.10;99.90;;;;;;4998935;28;20675;-77
2021/10/21 12:12:20;;;;;;;0.50;0.40;;;11.10;99.90;;;;;;4998447;28;20200;-78
2021/10/21 12:14:48;;;;;;;2.90;0.57;;;10.90;99.90;;;;;;4997842;28;20222;-76
2021/10/21 12:17:15;;;;;;;1.00;0.50;;;10.70;99.90;;;;;;4998701;28;20198;-77
2021/10/21 12:19:43;;;;;;;0.50;0.40;;;10.60;99.90;;;;;;4998349;28;20203;-77
2021/10/21 12:22:15;;;;;;;0.50;0.40;;;10.50;99.90;;;;;;4997801;28;20204;-77
2021/10/21 12:24:43;;;;;;;0.50;0.40;;;10.50;99.90;;;;;;4998345;28;20524;-77
2021/10/21 12:27:10;;;;;;;0.60;0.55;;;10.40;99.90;;;;;;4995178;28;20203;-77
2021/10/21 12:29:42;;;;;;;0.50;0.40;;;10.30;99.90;;;;;;4995135;28;20209;-75
2021/10/21 12:32:11;;;;;;;0.50;0.40;;;10.40;99.90;;;;;;4995602;28;20206;-77
2021/10/21 12:34:38;;;;;;;0.68;0.68;;;10.60;99.90;;;;;;4995301;28;20310;-77
2021/10/21 12:37:13;;;;;;;0.50;0.40;;;10.70;99.90;;;;;;4995423;28;20197;-77
2021/10/21 12:39:40;;;;;;;0.50;0.40;;;10.70;99.90;;;;;;4995393;28;20558;-77
2021/10/21 12:42:08;;;;;;;0.50;0.45;;;10.80;99.90;;;;;;4994802;28;20203;-78
2021/10/21 12:44:37;;;;;;;0.50;0.40;;;10.80;99.90;;;;;;4995256;28;20250;-77
2021/10/21 12:47:14;;;;;;;0.50;0.40;;;10.70;99.90;;;;;;4995031;28;20238;-77
2021/10/21 12:49:41;;;;;;;1.50;0.40;;;10.70;99.90;;;;;;4996428;28;20200;-77
2021/10/21 12:52:11;;;;;;;1.23;1.13;;;10.70;99.90;;;;;;4998349;28;20828;-75
2021/10/21 12:54:39;;;;;;;1.13;0.50;;;10.60;99.90;;;;;;4998031;28;20229;-78
2021/10/21 12:57:07;;;;;;;0.60;0.55;;;10.60;99.90;;;;;;4994706;28;20302;-77